sensor_id;sensor_type;location;lat;lon;timestamp;temperature;humidity
38263;DHT22;24054;50.128;19.730;2022-11-21T00:00:29;21.50;49.40
38263;DHT22;24054;50.128;19.730;2022-11-21T00:02:57;21.40;49.30
38263;DHT22;24054;50.128;19.730;2022-11-21T00:05:25;21.40;49.20
38263;DHT22;24054;50.128;19.730;2022-11-21T00:07:54;21.40;49.20
38263;DHT22;24054;50.128;19.730;2022-11-21T00:10:23;21.40;49.20
38263;DHT22;24054;50.128;19.730;2022-11-21T00:12:53;21.40;49.20
38263;DHT22;24054;50.128;19.730;2022-11-21T00:15:21;21.40;49.20
38263;DHT22;24054;50.128;19.730;2022-11-21T00:17:48;21.30;49.00
38263;DHT22;24054;50.128;19.730;2022-11-21T00:20:15;21.30;49.00
38263;DHT22;24054;50.128;19.730;2022-11-21T00:22:42;21.40;49.10
38263;DHT22;24054;50.128;19.730;2022-11-21T00:25:11;21.40;49.10
38263;DHT22;24054;50.128;19.730;2022-11-21T00:27:38;21.30;48.90
38263;DHT22;24054;50.128;19.730;2022-11-21T00:30:11;21.30;49.00
38263;DHT22;24054;50.128;19.730;2022-11-21T00:32:39;21.30;48.90
38263;DHT22;24054;50.128;19.730;2022-11-21T00:35:06;21.30;48.90
38263;DHT22;24054;50.128;19.730;2022-11-21T00:37:33;21.30;48.90
38263;DHT22;24054;50.128;19.730;2022-11-21T00:40:01;21.30;48.90
38263;DHT22;24054;50.128;19.730;2022-11-21T00:42:29;21.20;48.80
38263;DHT22;24054;50.128;19.730;2022-11-21T00:44:56;21.20;48.80
38263;DHT22;24054;50.128;19.730;2022-11-21T00:47:23;21.20;48.80
38263;DHT22;24054;50.128;19.730;2022-11-21T00:49:50;21.20;48.80
38263;DHT22;24054;50.128;19.730;2022-11-21T00:52:17;21.20;48.80
38263;DHT22;24054;50.128;19.730;2022-11-21T00:54:45;21.20;48.70
38263;DHT22;24054;50.128;19.730;2022-11-21T00:57:12;21.20;48.70
38263;DHT22;24054;50.128;19.730;2022-11-21T00:59:40;21.10;48.70
38263;DHT22;24054;50.128;19.730;2022-11-21T01:02:07;21.20;48.70
38263;DHT22;24054;50.128;19.730;2022-11-21T01:04:35;21.10;48.60
38263;DHT22;24054;50.128;19.730;2022-11-21T01:07:02;21.10;48.60
38263;DHT22;24054;50.128;19.730;2022-11-21T01:09:29;21.10;48.60
38263;DHT22;24054;50.128;19.730;2022-11-21T01:11:56;21.10;48.50
38263;DHT22;24054;50.128;19.730;2022-11-21T01:14:24;21.10;48.50
38263;DHT22;24054;50.128;19.730;2022-11-21T01:16:52;21.10;48.50
38263;DHT22;24054;50.128;19.730;2022-11-21T01:19:19;21.00;48.40
38263;DHT22;24054;50.128;19.730;2022-11-21T01:21:46;21.00;48.40
38263;DHT22;24054;50.128;19.730;2022-11-21T01:24:13;21.00;48.40
38263;DHT22;24054;50.128;19.730;2022-11-21T01:26:40;21.00;48.40
38263;DHT22;24054;50.128;19.730;2022-11-21T01:29:07;21.00;48.40
38263;DHT22;24054;50.128;19.730;2022-11-21T01:31:34;21.00;48.30
38263;DHT22;24054;50.128;19.730;2022-11-21T01:34:03;21.10;48.40
38263;DHT22;24054;50.128;19.730;2022-11-21T01:36:33;21.00;48.40
38263;DHT22;24054;50.128;19.730;2022-11-21T01:39:02;21.00;48.40
38263;DHT22;24054;50.128;19.730;2022-11-21T01:41:31;21.00;48.40
38263;DHT22;24054;50.128;19.730;2022-11-21T01:43:58;21.00;48.40
38263;DHT22;24054;50.128;19.730;2022-11-21T01:46:25;21.00;48.30
38263;DHT22;24054;50.128;19.730;2022-11-21T01:48:55;21.00;48.30
38263;DHT22;24054;50.128;19.730;2022-11-21T01:51:29;21.00;48.20
38263;DHT22;24054;50.128;19.730;2022-11-21T01:54:03;21.00;48.20
38263;DHT22;24054;50.128;19.730;2022-11-21T01:56:34;21.00;48.20
38263;DHT22;24054;50.128;19.730;2022-11-21T01:59:04;20.90;48.10
38263;DHT22;24054;50.128;19.730;2022-11-21T02:01:34;20.90;48.10
38263;DHT22;24054;50.128;19.730;2022-11-21T02:04:02;20.90;48.00
38263;DHT22;24054;50.128;19.730;2022-11-21T02:06:32;20.90;48.00
38263;DHT22;24054;50.128;19.730;2022-11-21T02:09:02;20.90;48.10
38263;DHT22;24054;50.128;19.730;2022-11-21T02:11:34;20.90;48.00
38263;DHT22;24054;50.128;19.730;2022-11-21T02:14:03;20.80;47.90
38263;DHT22;24054;50.128;19.730;2022-11-21T02:16:30;20.90;47.90
38263;DHT22;24054;50.128;19.730;2022-11-21T02:18:59;20.80;47.90
38263;DHT22;24054;50.128;19.730;2022-11-21T02:21:37;20.80;47.90
38263;DHT22;24054;50.128;19.730;2022-11-21T02:24:10;20.80;47.80
38263;DHT22;24054;50.128;19.730;2022-11-21T02:26:41;20.80;47.80
38263;DHT22;24054;50.128;19.730;2022-11-21T02:29:09;20.80;47.80
38263;DHT22;24054;50.128;19.730;2022-11-21T02:31:36;20.80;47.70
38263;DHT22;24054;50.128;19.730;2022-11-21T02:34:03;20.80;47.70
38263;DHT22;24054;50.128;19.730;2022-11-21T02:36:37;20.80;47.70
38263;DHT22;24054;50.128;19.730;2022-11-21T02:39:06;20.70;47.70
38263;DHT22;24054;50.128;19.730;2022-11-21T02:41:33;20.70;47.60
38263;DHT22;24054;50.128;19.730;2022-11-21T02:44:05;20.70;47.70
38263;DHT22;24054;50.128;19.730;2022-11-21T02:46:34;20.70;47.60
38263;DHT22;24054;50.128;19.730;2022-11-21T02:49:05;20.70;47.60
38263;DHT22;24054;50.128;19.730;2022-11-21T02:51:33;20.70;47.50
38263;DHT22;24054;50.128;19.730;2022-11-21T02:54:00;20.70;47.50
38263;DHT22;24054;50.128;19.730;2022-11-21T02:56:27;20.70;47.50
38263;DHT22;24054;50.128;19.730;2022-11-21T02:58:54;20.70;47.50
38263;DHT22;24054;50.128;19.730;2022-11-21T03:01:22;20.70;47.40
38263;DHT22;24054;50.128;19.730;2022-11-21T03:03:49;20.70;47.40
38263;DHT22;24054;50.128;19.730;2022-11-21T03:06:16;20.70;47.50
38263;DHT22;24054;50.128;19.730;2022-11-21T03:08:43;20.70;47.40
38263;DHT22;24054;50.128;19.730;2022-11-21T03:11:11;20.60;47.40
38263;DHT22;24054;50.128;19.730;2022-11-21T03:13:39;20.60;47.30
38263;DHT22;24054;50.128;19.730;2022-11-21T03:16:06;20.70;47.40
38263;DHT22;24054;50.128;19.730;2022-11-21T03:18:34;20.70;47.40
38263;DHT22;24054;50.128;19.730;2022-11-21T03:21:01;20.60;47.30
38263;DHT22;24054;50.128;19.730;2022-11-21T03:23:28;20.60;47.30
38263;DHT22;24054;50.128;19.730;2022-11-21T03:25:57;20.60;47.30
38263;DHT22;24054;50.128;19.730;2022-11-21T03:28:24;20.60;47.30
38263;DHT22;24054;50.128;19.730;2022-11-21T03:30:51;20.60;47.20
38263;DHT22;24054;50.128;19.730;2022-11-21T03:33:18;20.60;47.20
38263;DHT22;24054;50.128;19.730;2022-11-21T03:35:48;20.60;47.20
38263;DHT22;24054;50.128;19.730;2022-11-21T03:38:15;20.60;47.10
38263;DHT22;24054;50.128;19.730;2022-11-21T03:40:42;20.50;47.10
38263;DHT22;24054;50.128;19.730;2022-11-21T03:43:09;20.50;47.20
38263;DHT22;24054;50.128;19.730;2022-11-21T03:45:36;20.50;47.00
38263;DHT22;24054;50.128;19.730;2022-11-21T03:48:03;20.50;47.10
38263;DHT22;24054;50.128;19.730;2022-11-21T03:50:30;20.50;47.10
38263;DHT22;24054;50.128;19.730;2022-11-21T03:52:58;20.50;47.10
38263;DHT22;24054;50.128;19.730;2022-11-21T03:55:25;20.50;47.00
38263;DHT22;24054;50.128;19.730;2022-11-21T03:57:52;20.50;47.10
38263;DHT22;24054;50.128;19.730;2022-11-21T04:00:19;20.50;47.00
38263;DHT22;24054;50.128;19.730;2022-11-21T04:02:46;20.50;47.00
38263;DHT22;24054;50.128;19.730;2022-11-21T04:05:14;20.40;46.90
38263;DHT22;24054;50.128;19.730;2022-11-21T04:07:41;20.50;47.00
38263;DHT22;24054;50.128;19.730;2022-11-21T04:10:09;20.50;46.90
38263;DHT22;24054;50.128;19.730;2022-11-21T04:12:36;20.40;46.90
38263;DHT22;24054;50.128;19.730;2022-11-21T04:15:04;20.40;46.90
38263;DHT22;24054;50.128;19.730;2022-11-21T04:17:31;20.40;46.90
38263;DHT22;24054;50.128;19.730;2022-11-21T04:19:58;20.40;46.90
38263;DHT22;24054;50.128;19.730;2022-11-21T04:22:25;20.40;46.90
38263;DHT22;24054;50.128;19.730;2022-11-21T04:24:52;20.40;46.90
38263;DHT22;24054;50.128;19.730;2022-11-21T04:27:21;20.40;46.80
38263;DHT22;24054;50.128;19.730;2022-11-21T04:29:48;20.40;46.90
38263;DHT22;24054;50.128;19.730;2022-11-21T04:32:15;20.40;46.80
38263;DHT22;24054;50.128;19.730;2022-11-21T04:34:42;20.40;46.80
38263;DHT22;24054;50.128;19.730;2022-11-21T04:37:09;20.30;46.80
38263;DHT22;24054;50.128;19.730;2022-11-21T04:39:36;20.30;46.80
38263;DHT22;24054;50.128;19.730;2022-11-21T04:42:03;20.30;46.70
38263;DHT22;24054;50.128;19.730;2022-11-21T04:44:31;20.30;46.80
38263;DHT22;24054;50.128;19.730;2022-11-21T04:46:58;20.30;46.70
38263;DHT22;24054;50.128;19.730;2022-11-21T04:49:25;20.30;46.80
38263;DHT22;24054;50.128;19.730;2022-11-21T04:51:52;20.30;46.70
38263;DHT22;24054;50.128;19.730;2022-11-21T04:54:20;20.30;46.70
38263;DHT22;24054;50.128;19.730;2022-11-21T04:56:47;20.30;46.70
38263;DHT22;24054;50.128;19.730;2022-11-21T04:59:14;20.30;46.70
38263;DHT22;24054;50.128;19.730;2022-11-21T05:01:42;20.30;46.70
38263;DHT22;24054;50.128;19.730;2022-11-21T05:04:09;20.30;46.70
38263;DHT22;24054;50.128;19.730;2022-11-21T05:06:36;20.30;46.70
38263;DHT22;24054;50.128;19.730;2022-11-21T05:09:03;20.20;46.70
38263;DHT22;24054;50.128;19.730;2022-11-21T05:11:30;20.20;46.70
38263;DHT22;24054;50.128;19.730;2022-11-21T05:14:14;20.20;46.70
38263;DHT22;24054;50.128;19.730;2022-11-21T05:16:43;20.30;46.70
38263;DHT22;24054;50.128;19.730;2022-11-21T05:19:10;20.20;46.70
38263;DHT22;24054;50.128;19.730;2022-11-21T05:21:37;20.20;46.80
38263;DHT22;24054;50.128;19.730;2022-11-21T05:24:04;20.20;46.70
38263;DHT22;24054;50.128;19.730;2022-11-21T05:26:31;20.20;46.70
38263;DHT22;24054;50.128;19.730;2022-11-21T05:28:59;20.20;46.70
38263;DHT22;24054;50.128;19.730;2022-11-21T05:31:26;20.20;46.80
38263;DHT22;24054;50.128;19.730;2022-11-21T05:33:54;20.20;46.70
38263;DHT22;24054;50.128;19.730;2022-11-21T05:36:21;20.20;46.70
38263;DHT22;24054;50.128;19.730;2022-11-21T05:38:48;20.20;46.70
38263;DHT22;24054;50.128;19.730;2022-11-21T05:41:15;20.20;46.60
38263;DHT22;24054;50.128;19.730;2022-11-21T05:43:42;20.20;46.70
38263;DHT22;24054;50.128;19.730;2022-11-21T05:46:11;20.20;46.70
38263;DHT22;24054;50.128;19.730;2022-11-21T05:48:38;20.20;46.80
38263;DHT22;24054;50.128;19.730;2022-11-21T05:51:07;20.10;46.80
38263;DHT22;24054;50.128;19.730;2022-11-21T05:53:34;20.10;46.80
38263;DHT22;24054;50.128;19.730;2022-11-21T05:56:03;20.10;46.80
38263;DHT22;24054;50.128;19.730;2022-11-21T05:58:31;20.10;46.80
38263;DHT22;24054;50.128;19.730;2022-11-21T06:00:59;20.10;46.80
38263;DHT22;24054;50.128;19.730;2022-11-21T06:03:26;20.10;46.90
38263;DHT22;24054;50.128;19.730;2022-11-21T06:06:03;20.10;46.90
38263;DHT22;24054;50.128;19.730;2022-11-21T06:08:32;20.10;46.90
38263;DHT22;24054;50.128;19.730;2022-11-21T06:11:00;20.10;46.90
38263;DHT22;24054;50.128;19.730;2022-11-21T06:13:27;20.10;47.10
38263;DHT22;24054;50.128;19.730;2022-11-21T06:15:58;20.10;47.30
38263;DHT22;24054;50.128;19.730;2022-11-21T06:18:26;20.20;47.40
38263;DHT22;24054;50.128;19.730;2022-11-21T06:20:58;20.20;48.20
38263;DHT22;24054;50.128;19.730;2022-11-21T06:23:25;20.30;47.70
38263;DHT22;24054;50.128;19.730;2022-11-21T06:25:56;20.30;47.70
38263;DHT22;24054;50.128;19.730;2022-11-21T06:28:24;20.30;47.60
38263;DHT22;24054;50.128;19.730;2022-11-21T06:30:51;20.40;47.70
38263;DHT22;24054;50.128;19.730;2022-11-21T06:33:19;20.40;47.60
38263;DHT22;24054;50.128;19.730;2022-11-21T06:35:46;20.50;47.70
38263;DHT22;24054;50.128;19.730;2022-11-21T06:38:13;20.50;47.70
38263;DHT22;24054;50.128;19.730;2022-11-21T06:40:43;20.60;47.70
38263;DHT22;24054;50.128;19.730;2022-11-21T06:43:11;20.60;47.70
38263;DHT22;24054;50.128;19.730;2022-11-21T06:45:38;20.60;47.60
38263;DHT22;24054;50.128;19.730;2022-11-21T06:48:06;20.70;47.70
38263;DHT22;24054;50.128;19.730;2022-11-21T06:50:33;20.70;47.60
38263;DHT22;24054;50.128;19.730;2022-11-21T06:53:00;20.70;47.60
38263;DHT22;24054;50.128;19.730;2022-11-21T06:55:27;20.80;47.60
38263;DHT22;24054;50.128;19.730;2022-11-21T06:57:56;20.80;47.60
38263;DHT22;24054;50.128;19.730;2022-11-21T07:00:25;20.90;47.60
38263;DHT22;24054;50.128;19.730;2022-11-21T07:02:52;20.90;47.60
38263;DHT22;24054;50.128;19.730;2022-11-21T07:05:20;20.90;47.60
38263;DHT22;24054;50.128;19.730;2022-11-21T07:07:47;21.00;47.60
38263;DHT22;24054;50.128;19.730;2022-11-21T07:10:14;21.00;47.60
38263;DHT22;24054;50.128;19.730;2022-11-21T07:12:41;21.00;47.60
38263;DHT22;24054;50.128;19.730;2022-11-21T07:15:26;21.00;47.70
38263;DHT22;24054;50.128;19.730;2022-11-21T07:17:53;21.00;47.70
38263;DHT22;24054;50.128;19.730;2022-11-21T07:20:20;21.10;47.80
38263;DHT22;24054;50.128;19.730;2022-11-21T07:22:47;21.00;47.80
38263;DHT22;24054;50.128;19.730;2022-11-21T07:25:15;21.00;47.90
38263;DHT22;24054;50.128;19.730;2022-11-21T07:27:42;21.10;48.10
38263;DHT22;24054;50.128;19.730;2022-11-21T07:30:09;21.00;48.30
38263;DHT22;24054;50.128;19.730;2022-11-21T07:32:40;21.10;48.40
38263;DHT22;24054;50.128;19.730;2022-11-21T07:35:08;21.10;48.40
38263;DHT22;24054;50.128;19.730;2022-11-21T07:37:37;21.10;48.60
38263;DHT22;24054;50.128;19.730;2022-11-21T07:40:06;21.20;48.80
38263;DHT22;24054;50.128;19.730;2022-11-21T07:42:34;21.20;48.90
38263;DHT22;24054;50.128;19.730;2022-11-21T07:45:01;21.20;49.00
38263;DHT22;24054;50.128;19.730;2022-11-21T07:47:28;21.30;49.20
38263;DHT22;24054;50.128;19.730;2022-11-21T07:49:57;21.30;49.30
38263;DHT22;24054;50.128;19.730;2022-11-21T07:52:24;21.30;49.20
38263;DHT22;24054;50.128;19.730;2022-11-21T07:54:54;21.40;49.60
38263;DHT22;24054;50.128;19.730;2022-11-21T07:57:22;21.40;49.60
38263;DHT22;24054;50.128;19.730;2022-11-21T07:59:49;21.50;49.90
38263;DHT22;24054;50.128;19.730;2022-11-21T08:02:17;21.50;50.10
38263;DHT22;24054;50.128;19.730;2022-11-21T08:04:45;21.50;50.30
38263;DHT22;24054;50.128;19.730;2022-11-21T08:07:14;21.50;50.10
38263;DHT22;24054;50.128;19.730;2022-11-21T08:09:41;21.50;50.20
38263;DHT22;24054;50.128;19.730;2022-11-21T08:12:09;21.60;50.40
38263;DHT22;24054;50.128;19.730;2022-11-21T08:14:38;21.60;50.50
38263;DHT22;24054;50.128;19.730;2022-11-21T08:17:06;21.60;50.50
38263;DHT22;24054;50.128;19.730;2022-11-21T08:19:34;21.60;50.40
38263;DHT22;24054;50.128;19.730;2022-11-21T08:22:01;21.60;50.50
38263;DHT22;24054;50.128;19.730;2022-11-21T08:24:29;21.70;50.70
38263;DHT22;24054;50.128;19.730;2022-11-21T08:26:58;21.70;50.70
38263;DHT22;24054;50.128;19.730;2022-11-21T08:29:25;21.70;50.80
38263;DHT22;24054;50.128;19.730;2022-11-21T08:31:52;21.70;50.50
38263;DHT22;24054;50.128;19.730;2022-11-21T08:34:19;21.80;50.50
38263;DHT22;24054;50.128;19.730;2022-11-21T08:36:47;21.70;50.30
38263;DHT22;24054;50.128;19.730;2022-11-21T08:39:14;21.80;50.50
38263;DHT22;24054;50.128;19.730;2022-11-21T08:41:42;21.80;50.80
38263;DHT22;24054;50.128;19.730;2022-11-21T08:44:27;21.90;51.00
38263;DHT22;24054;50.128;19.730;2022-11-21T08:46:54;21.90;51.10
38263;DHT22;24054;50.128;19.730;2022-11-21T08:49:22;21.90;51.20
38263;DHT22;24054;50.128;19.730;2022-11-21T08:51:49;22.00;51.10
38263;DHT22;24054;50.128;19.730;2022-11-21T08:54:17;22.00;51.00
38263;DHT22;24054;50.128;19.730;2022-11-21T08:56:46;22.10;51.00
38263;DHT22;24054;50.128;19.730;2022-11-21T08:59:14;22.20;51.20
38263;DHT22;24054;50.128;19.730;2022-11-21T09:01:41;22.30;51.50
38263;DHT22;24054;50.128;19.730;2022-11-21T09:04:10;22.40;51.40
38263;DHT22;24054;50.128;19.730;2022-11-21T09:06:37;22.50;51.60
38263;DHT22;24054;50.128;19.730;2022-11-21T09:09:05;22.60;51.60
38263;DHT22;24054;50.128;19.730;2022-11-21T09:11:34;22.80;52.50
38263;DHT22;24054;50.128;19.730;2022-11-21T09:14:04;22.80;52.30
38263;DHT22;24054;50.128;19.730;2022-11-21T09:16:48;22.80;52.30
38263;DHT22;24054;50.128;19.730;2022-11-21T09:19:33;22.80;52.40
38263;DHT22;24054;50.128;19.730;2022-11-21T09:22:00;22.90;52.40
38263;DHT22;24054;50.128;19.730;2022-11-21T09:24:29;22.90;52.80
38263;DHT22;24054;50.128;19.730;2022-11-21T09:26:57;22.90;52.90
38263;DHT22;24054;50.128;19.730;2022-11-21T09:29:26;22.90;53.00
38263;DHT22;24054;50.128;19.730;2022-11-21T09:31:53;23.00;53.00
38263;DHT22;24054;50.128;19.730;2022-11-21T09:34:21;23.00;53.20
38263;DHT22;24054;50.128;19.730;2022-11-21T09:36:48;23.00;53.30
38263;DHT22;24054;50.128;19.730;2022-11-21T09:39:15;23.00;53.30
38263;DHT22;24054;50.128;19.730;2022-11-21T09:41:53;23.00;53.30
38263;DHT22;24054;50.128;19.730;2022-11-21T09:44:37;23.00;53.10
38263;DHT22;24054;50.128;19.730;2022-11-21T09:47:20;23.00;52.90
38263;DHT22;24054;50.128;19.730;2022-11-21T09:49:52;23.00;52.70
38263;DHT22;24054;50.128;19.730;2022-11-21T09:52:24;23.00;52.60
38263;DHT22;24054;50.128;19.730;2022-11-21T09:54:56;23.00;52.50
38263;DHT22;24054;50.128;19.730;2022-11-21T09:57:25;23.00;52.40
38263;DHT22;24054;50.128;19.730;2022-11-21T09:59:54;22.90;52.20
38263;DHT22;24054;50.128;19.730;2022-11-21T10:02:22;22.90;52.20
38263;DHT22;24054;50.128;19.730;2022-11-21T10:04:50;22.90;51.90
38263;DHT22;24054;50.128;19.730;2022-11-21T10:07:21;22.90;52.10
38263;DHT22;24054;50.128;19.730;2022-11-21T10:10:08;22.90;52.10
38263;DHT22;24054;50.128;19.730;2022-11-21T10:12:46;22.90;52.10
38263;DHT22;24054;50.128;19.730;2022-11-21T10:15:31;22.90;52.20
38263;DHT22;24054;50.128;19.730;2022-11-21T10:18:15;22.90;52.00
38263;DHT22;24054;50.128;19.730;2022-11-21T10:20:49;22.90;52.00
38263;DHT22;24054;50.128;19.730;2022-11-21T10:23:38;22.90;52.10
38263;DHT22;24054;50.128;19.730;2022-11-21T10:26:14;22.80;52.10
38263;DHT22;24054;50.128;19.730;2022-11-21T10:28:48;22.90;52.20
38263;DHT22;24054;50.128;19.730;2022-11-21T10:31:19;22.90;52.20
38263;DHT22;24054;50.128;19.730;2022-11-21T10:33:49;22.90;52.10
38263;DHT22;24054;50.128;19.730;2022-11-21T10:36:24;22.90;52.10
38263;DHT22;24054;50.128;19.730;2022-11-21T10:38:56;22.80;52.10
38263;DHT22;24054;50.128;19.730;2022-11-21T10:41:39;22.80;52.20
38263;DHT22;24054;50.128;19.730;2022-11-21T10:44:13;22.90;52.30
38263;DHT22;24054;50.128;19.730;2022-11-21T10:47:11;22.90;52.20
38263;DHT22;24054;50.128;19.730;2022-11-21T10:49:38;23.00;52.20
38263;DHT22;24054;50.128;19.730;2022-11-21T10:52:10;23.00;52.90
38263;DHT22;24054;50.128;19.730;2022-11-21T10:55:08;23.00;52.30
38263;DHT22;24054;50.128;19.730;2022-11-21T10:57:42;23.00;52.20
38263;DHT22;24054;50.128;19.730;2022-11-21T11:00:20;23.00;52.30
38263;DHT22;24054;50.128;19.730;2022-11-21T11:03:15;23.00;52.40
38263;DHT22;24054;50.128;19.730;2022-11-21T11:05:54;23.00;52.40
38263;DHT22;24054;50.128;19.730;2022-11-21T11:08:22;23.00;52.10
38263;DHT22;24054;50.128;19.730;2022-11-21T11:11:11;23.00;52.10
38263;DHT22;24054;50.128;19.730;2022-11-21T11:13:54;23.00;52.00
38263;DHT22;24054;50.128;19.730;2022-11-21T11:16:22;23.00;52.10
38263;DHT22;24054;50.128;19.730;2022-11-21T11:18:55;23.10;52.10
38263;DHT22;24054;50.128;19.730;2022-11-21T11:21:24;23.00;51.70
38263;DHT22;24054;50.128;19.730;2022-11-21T11:23:52;23.00;51.30
38263;DHT22;24054;50.128;19.730;2022-11-21T11:26:22;22.90;51.10
38263;DHT22;24054;50.128;19.730;2022-11-21T11:28:50;22.90;51.10
38263;DHT22;24054;50.128;19.730;2022-11-21T11:31:17;22.90;50.90
38263;DHT22;24054;50.128;19.730;2022-11-21T11:33:53;22.90;51.10
38263;DHT22;24054;50.128;19.730;2022-11-21T11:36:36;22.80;51.00
38263;DHT22;24054;50.128;19.730;2022-11-21T11:39:15;22.70;50.90
38263;DHT22;24054;50.128;19.730;2022-11-21T11:42:13;22.70;50.90
38263;DHT22;24054;50.128;19.730;2022-11-21T11:45:15;22.70;50.90
38263;DHT22;24054;50.128;19.730;2022-11-21T11:48:06;22.70;51.00
38263;DHT22;24054;50.128;19.730;2022-11-21T11:50:38;22.70;50.80
38263;DHT22;24054;50.128;19.730;2022-11-21T11:53:12;22.60;50.50
38263;DHT22;24054;50.128;19.730;2022-11-21T11:55:44;22.60;50.50
38263;DHT22;24054;50.128;19.730;2022-11-21T11:58:19;22.50;50.50
38263;DHT22;24054;50.128;19.730;2022-11-21T12:00:50;22.60;50.50
38263;DHT22;24054;50.128;19.730;2022-11-21T12:03:23;22.60;49.80
38263;DHT22;24054;50.128;19.730;2022-11-21T12:06:00;22.50;49.80
38263;DHT22;24054;50.128;19.730;2022-11-21T12:08:36;22.50;49.90
38263;DHT22;24054;50.128;19.730;2022-11-21T12:11:22;22.50;50.10
38263;DHT22;24054;50.128;19.730;2022-11-21T12:14:16;22.50;50.10
38263;DHT22;24054;50.128;19.730;2022-11-21T12:17:07;22.50;50.50
38263;DHT22;24054;50.128;19.730;2022-11-21T12:19:36;22.40;50.10
38263;DHT22;24054;50.128;19.730;2022-11-21T12:22:06;22.40;50.10
38263;DHT22;24054;50.128;19.730;2022-11-21T12:24:36;22.40;50.30
38263;DHT22;24054;50.128;19.730;2022-11-21T12:27:11;22.40;50.50
38263;DHT22;24054;50.128;19.730;2022-11-21T12:32:50;22.40;50.70
38263;DHT22;24054;50.128;19.730;2022-11-21T12:35:31;22.40;50.50
38263;DHT22;24054;50.128;19.730;2022-11-21T12:38:15;22.40;50.60
38263;DHT22;24054;50.128;19.730;2022-11-21T12:40:56;22.40;50.70
38263;DHT22;24054;50.128;19.730;2022-11-21T12:43:32;22.40;50.80
38263;DHT22;24054;50.128;19.730;2022-11-21T12:46:12;22.40;50.90
38263;DHT22;24054;50.128;19.730;2022-11-21T12:48:52;22.40;50.90
38263;DHT22;24054;50.128;19.730;2022-11-21T12:52:10;22.50;51.00
38263;DHT22;24054;50.128;19.730;2022-11-21T12:55:23;22.40;51.00
38263;DHT22;24054;50.128;19.730;2022-11-21T12:58:06;22.50;51.10
38263;DHT22;24054;50.128;19.730;2022-11-21T13:00:47;22.40;51.20
38263;DHT22;24054;50.128;19.730;2022-11-21T13:03:44;22.50;52.00
38263;DHT22;24054;50.128;19.730;2022-11-21T13:06:16;22.50;51.90
38263;DHT22;24054;50.128;19.730;2022-11-21T13:08:47;22.50;52.20
38263;DHT22;24054;50.128;19.730;2022-11-21T13:11:26;22.50;52.40
38263;DHT22;24054;50.128;19.730;2022-11-21T13:14:19;22.60;53.00
38263;DHT22;24054;50.128;19.730;2022-11-21T13:16:55;22.60;53.10
38263;DHT22;24054;50.128;19.730;2022-11-21T13:19:35;22.70;53.10
38263;DHT22;24054;50.128;19.730;2022-11-21T13:22:03;22.70;53.30
38263;DHT22;24054;50.128;19.730;2022-11-21T13:24:56;22.70;53.30
38263;DHT22;24054;50.128;19.730;2022-11-21T13:27:26;22.80;53.60
38263;DHT22;24054;50.128;19.730;2022-11-21T13:30:20;22.80;53.80
38263;DHT22;24054;50.128;19.730;2022-11-21T13:32:49;22.80;53.80
38263;DHT22;24054;50.128;19.730;2022-11-21T13:38:28;22.90;54.10
38263;DHT22;24054;50.128;19.730;2022-11-21T13:40:56;22.90;54.00
38263;DHT22;24054;50.128;19.730;2022-11-21T13:43:42;22.90;53.80
38263;DHT22;24054;50.128;19.730;2022-11-21T13:46:09;22.90;52.80
38263;DHT22;24054;50.128;19.730;2022-11-21T13:48:53;22.80;52.60
38263;DHT22;24054;50.128;19.730;2022-11-21T13:51:49;22.80;52.30
38263;DHT22;24054;50.128;19.730;2022-11-21T13:54:36;22.70;52.10
38263;DHT22;24054;50.128;19.730;2022-11-21T14:00:22;22.70;52.00
38263;DHT22;24054;50.128;19.730;2022-11-21T14:09:19;22.70;51.80
38263;DHT22;24054;50.128;19.730;2022-11-21T14:11:49;22.70;51.80
38263;DHT22;24054;50.128;19.730;2022-11-21T14:14:30;22.70;51.70
38263;DHT22;24054;50.128;19.730;2022-11-21T14:17:19;22.70;51.80
38263;DHT22;24054;50.128;19.730;2022-11-21T14:19:50;22.70;51.70
38263;DHT22;24054;50.128;19.730;2022-11-21T14:22:26;22.60;51.60
38263;DHT22;24054;50.128;19.730;2022-11-21T14:24:54;22.60;52.20
38263;DHT22;24054;50.128;19.730;2022-11-21T14:27:26;22.70;51.70
38263;DHT22;24054;50.128;19.730;2022-11-21T14:29:54;22.70;51.70
38263;DHT22;24054;50.128;19.730;2022-11-21T14:32:32;22.70;52.10
38263;DHT22;24054;50.128;19.730;2022-11-21T14:35:09;22.80;51.90
38263;DHT22;24054;50.128;19.730;2022-11-21T14:37:39;22.70;51.70
38263;DHT22;24054;50.128;19.730;2022-11-21T14:40:11;22.70;51.80
38263;DHT22;24054;50.128;19.730;2022-11-21T14:42:39;22.70;51.90
38263;DHT22;24054;50.128;19.730;2022-11-21T14:45:12;22.70;52.00
38263;DHT22;24054;50.128;19.730;2022-11-21T14:47:47;22.70;52.10
38263;DHT22;24054;50.128;19.730;2022-11-21T14:50:23;22.70;52.10
38263;DHT22;24054;50.128;19.730;2022-11-21T14:52:51;22.70;52.00
38263;DHT22;24054;50.128;19.730;2022-11-21T14:55:26;22.70;52.10
38263;DHT22;24054;50.128;19.730;2022-11-21T14:57:54;22.60;52.00
38263;DHT22;24054;50.128;19.730;2022-11-21T15:00:23;22.70;52.20
38263;DHT22;24054;50.128;19.730;2022-11-21T15:02:55;22.60;52.10
38263;DHT22;24054;50.128;19.730;2022-11-21T15:05:28;22.70;52.40
38263;DHT22;24054;50.128;19.730;2022-11-21T15:07:56;22.60;52.40
38263;DHT22;24054;50.128;19.730;2022-11-21T15:10:27;22.70;52.50
38263;DHT22;24054;50.128;19.730;2022-11-21T15:13:02;22.70;50.80
38263;DHT22;24054;50.128;19.730;2022-11-21T15:15:33;22.60;50.10
38263;DHT22;24054;50.128;19.730;2022-11-21T15:18:04;22.60;50.40
38263;DHT22;24054;50.128;19.730;2022-11-21T15:20:32;22.60;50.50
38263;DHT22;24054;50.128;19.730;2022-11-21T15:23:00;22.50;50.70
38263;DHT22;24054;50.128;19.730;2022-11-21T15:25:29;22.60;51.00
38263;DHT22;24054;50.128;19.730;2022-11-21T15:28:05;22.60;51.10
38263;DHT22;24054;50.128;19.730;2022-11-21T15:30:34;22.60;51.30
38263;DHT22;24054;50.128;19.730;2022-11-21T15:33:08;22.60;51.40
38263;DHT22;24054;50.128;19.730;2022-11-21T15:35:42;22.60;51.40
38263;DHT22;24054;50.128;19.730;2022-11-21T15:38:24;22.60;51.10
38263;DHT22;24054;50.128;19.730;2022-11-21T15:41:01;22.60;51.40
38263;DHT22;24054;50.128;19.730;2022-11-21T15:43:33;22.60;51.30
38263;DHT22;24054;50.128;19.730;2022-11-21T15:46:01;22.60;51.20
38263;DHT22;24054;50.128;19.730;2022-11-21T15:48:30;22.50;51.10
38263;DHT22;24054;50.128;19.730;2022-11-21T15:50:57;22.50;51.30
38263;DHT22;24054;50.128;19.730;2022-11-21T15:53:24;22.50;51.20
38263;DHT22;24054;50.128;19.730;2022-11-21T15:55:51;22.50;51.40